Time;durP1;ratioP1;P1;durP2;ratioP2;P2;SDS_P1;SDS_P2;PMS_P1;PMS_P2;Temp;Humidity;BMP_temperature;BMP_pressure;BME280_temperature;BME280_humidity;BME280_pressure;Samples;Min_cycle;Max_cycle;Signal;HPM_P1;HPM_P2
2023/03/29 00:01:06;;;;;;;2.17;2.08;;;;;;;;;;5084661;28;20563;-69
2023/03/29 00:03:33;;;;;;;2.22;2.03;;;;;;;;;;5084452;28;20196;-69
2023/03/29 00:06:01;;;;;;;3.67;2.03;;;;;;;;;;5084615;28;20235;-69
2023/03/29 00:08:28;;;;;;;2.38;2.20;;;;;;;;;;5084491;28;20275;-69
2023/03/29 00:10:57;;;;;;;2.50;1.90;;;;;;;;;;5084493;28;20226;-69
2023/03/29 00:13:25;;;;;;;2.28;2.13;;;;;;;;;;5084191;28;20376;-69
2023/03/29 00:15:52;;;;;;;2.15;2.00;;;;;;;;;;5084557;28;20204;-69
2023/03/29 00:18:18;;;;;;;2.67;2.13;;;;;;;;;;5084619;28;20204;-69
2023/03/29 00:20:44;;;;;;;2.33;2.22;;;;;;;;;;5084533;28;20218;-69
2023/03/29 00:23:10;;;;;;;2.20;2.10;;;;;;;;;;5084169;28;20230;-69
2023/03/29 00:25:37;;;;;;;2.40;2.05;;;;;;;;;;5076182;28;20231;-69
2023/03/29 00:28:03;;;;;;;2.10;2.00;;;;;;;;;;5083854;28;20423;-69
2023/03/29 00:30:31;;;;;;;4.30;2.05;;;;;;;;;;5084126;28;20442;-69
2023/03/29 00:32:57;;;;;;;2.60;2.13;;;;;;;;;;5084030;28;20519;-69
2023/03/29 00:35:23;;;;;;;2.40;2.20;;;;;;;;;;5084024;28;20212;-69
2023/03/29 00:37:51;;;;;;;2.90;2.47;;;;;;;;;;5083906;28;20211;-69
2023/03/29 00:40:18;;;;;;;2.40;2.20;;;;;;;;;;5083593;28;20222;-69
2023/03/29 00:42:45;;;;;;;2.17;1.98;;;;;;;;;;5083504;28;20243;-69
2023/03/29 00:45:17;;;;;;;4.53;2.30;;;;;;;;;;5083720;28;20208;-69
2023/03/29 00:47:46;;;;;;;2.10;2.00;;;;;;;;;;5076268;28;20380;-69
2023/03/29 00:50:14;;;;;;;2.20;2.08;;;;;;;;;;5083530;28;20248;-69
2023/03/29 00:52:41;;;;;;;2.25;2.15;;;;;;;;;;5075281;28;20189;-69
2023/03/29 00:55:11;;;;;;;2.15;2.05;;;;;;;;;;5083432;28;20223;-69
2023/03/29 00:57:38;;;;;;;2.28;2.08;;;;;;;;;;5083357;28;20260;-69
2023/03/29 01:00:08;;;;;;;2.25;2.08;;;;;;;;;;5083572;28;20204;-69
2023/03/29 01:02:38;;;;;;;2.00;1.90;;;;;;;;;;5083148;28;20218;-69
2023/03/29 01:05:07;;;;;;;2.90;2.20;;;;;;;;;;5083263;28;20200;-69
2023/03/29 01:07:37;;;;;;;1.90;1.80;;;;;;;;;;5083195;28;20204;-69
2023/03/29 01:10:07;;;;;;;4.10;1.77;;;;;;;;;;5083446;28;20215;-69
2023/03/29 01:12:37;;;;;;;3.30;2.13;;;;;;;;;;5082852;28;20208;-69
2023/03/29 01:15:06;;;;;;;2.40;2.30;;;;;;;;;;5083301;28;20246;-69
2023/03/29 01:17:32;;;;;;;1.92;1.83;;;;;;;;;;5082940;28;20504;-69
2023/03/29 01:20:03;;;;;;;2.22;2.08;;;;;;;;;;5083070;28;20201;-69
2023/03/29 01:22:39;;;;;;;2.05;1.90;;;;;;;;;;5082541;28;20296;-69
2023/03/29 01:25:11;;;;;;;2.67;2.10;;;;;;;;;;5083085;28;20212;-69
2023/03/29 01:27:51;;;;;;;2.00;1.73;;;;;;;;;;5082875;28;20220;-69
2023/03/29 01:30:19;;;;;;;2.00;2.00;;;;;;;;;;5082657;28;20270;-69
2023/03/29 01:32:47;;;;;;;1.90;1.80;;;;;;;;;;5082541;28;20208;-69
2023/03/29 01:35:15;;;;;;;2.08;1.98;;;;;;;;;;5082979;28;20223;-69
2023/03/29 01:37:46;;;;;;;2.00;1.90;;;;;;;;;;5074687;28;20216;-69
2023/03/29 01:40:13;;;;;;;2.20;2.10;;;;;;;;;;5082712;28;20526;-69
2023/03/29 01:42:44;;;;;;;2.20;2.03;;;;;;;;;;5082332;28;20228;-69
2023/03/29 01:45:14;;;;;;;2.15;2.00;;;;;;;;;;5082516;28;20200;-69
2023/03/29 01:47:45;;;;;;;2.55;2.03;;;;;;;;;;5082527;28;20223;-69
2023/03/29 01:50:13;;;;;;;3.70;2.05;;;;;;;;;;5082604;28;20415;-69
2023/03/29 01:52:42;;;;;;;2.65;2.17;;;;;;;;;;5082101;28;20196;-69
2023/03/29 01:55:11;;;;;;;1.88;1.70;;;;;;;;;;5082471;28;20200;-69
2023/03/29 01:57:38;;;;;;;1.65;1.55;;;;;;;;;;5082392;28;20196;-69
2023/03/29 02:00:09;;;;;;;3.47;2.00;;;;;;;;;;5081990;28;20238;-69
2023/03/29 02:02:38;;;;;;;2.42;2.30;;;;;;;;;;5082023;28;20212;-69
2023/03/29 02:05:08;;;;;;;1.85;1.67;;;;;;;;;;5082949;28;20200;-69
2023/03/29 02:07:37;;;;;;;1.75;1.73;;;;;;;;;;5082369;28;20212;-69
2023/03/29 02:10:03;;;;;;;2.58;2.40;;;;;;;;;;5082536;28;20200;-69
2023/03/29 02:12:30;;;;;;;2.05;1.95;;;;;;;;;;5082132;28;20207;-69
2023/03/29 02:14:57;;;;;;;2.72;2.53;;;;;;;;;;5082816;28;20208;-69
2023/03/29 02:17:24;;;;;;;2.78;2.28;;;;;;;;;;5082325;28;20430;-69
2023/03/29 02:19:53;;;;;;;2.00;2.00;;;;;;;;;;5082835;28;20204;-69
2023/03/29 02:22:23;;;;;;;2.05;1.95;;;;;;;;;;5082209;28;20220;-69
2023/03/29 02:24:51;;;;;;;2.92;2.22;;;;;;;;;;5081996;28;20207;-69
2023/03/29 02:27:18;;;;;;;2.63;2.10;;;;;;;;;;5082247;28;20220;-69
2023/03/29 02:29:45;;;;;;;2.55;2.25;;;;;;;;;;5073908;28;20197;-69
2023/03/29 02:32:14;;;;;;;2.60;2.40;;;;;;;;;;5081902;28;20196;-69
2023/03/29 02:34:46;;;;;;;1.80;1.80;;;;;;;;;;5081826;28;20447;-69
2023/03/29 02:37:16;;;;;;;1.70;1.70;;;;;;;;;;5082394;28;20206;-69
2023/03/29 02:39:43;;;;;;;2.15;2.05;;;;;;;;;;5082070;28;20197;-69
2023/03/29 02:42:10;;;;;;;2.15;2.05;;;;;;;;;;5081732;28;20222;-69
2023/03/29 02:44:38;;;;;;;3.70;1.95;;;;;;;;;;5081922;28;20529;-69
2023/03/29 02:47:07;;;;;;;2.25;2.08;;;;;;;;;;5081667;28;20206;-69
2023/03/29 02:49:34;;;;;;;2.15;1.85;;;;;;;;;;5081854;28;20211;-69
2023/03/29 02:52:05;;;;;;;2.10;1.85;;;;;;;;;;5081901;28;20204;-69
2023/03/29 02:54:36;;;;;;;2.28;2.17;;;;;;;;;;5081876;28;20453;-69
2023/03/29 02:57:05;;;;;;;2.05;1.95;;;;;;;;;;5081896;28;20200;-69
2023/03/29 02:59:32;;;;;;;2.22;2.13;;;;;;;;;;5082069;28;20246;-69
2023/03/29 03:01:58;;;;;;;3.00;2.40;;;;;;;;;;5081759;28;20201;-68
2023/03/29 03:04:25;;;;;;;2.80;2.20;;;;;;;;;;5081576;28;20220;-69
2023/03/29 03:06:51;;;;;;;2.50;2.30;;;;;;;;;;5081830;28;20268;-69
2023/03/29 03:09:18;;;;;;;2.47;2.28;;;;;;;;;;5081909;28;20201;-69
2023/03/29 03:11:45;;;;;;;2.95;2.38;;;;;;;;;;5083348;28;20200;-69
2023/03/29 03:14:11;;;;;;;2.28;2.17;;;;;;;;;;5085346;28;20196;-69
2023/03/29 03:16:38;;;;;;;2.33;2.17;;;;;;;;;;5085435;28;20208;-69
2023/03/29 03:19:04;;;;;;;2.75;2.25;;;;;;;;;;5085513;28;20204;-69
2023/03/29 03:21:31;;;;;;;2.17;2.05;;;;;;;;;;5085141;28;20200;-69
2023/03/29 03:23:57;;;;;;;2.50;2.40;;;;;;;;;;5085582;28;20220;-68
2023/03/29 03:26:28;;;;;;;2.45;2.10;;;;;;;;;;5085282;28;20212;-69
2023/03/29 03:28:56;;;;;;;12.35;4.70;;;;;;;;;;5085367;28;20543;-69
2023/03/29 03:31:22;;;;;;;3.13;2.53;;;;;;;;;;5084839;28;20532;-69
2023/03/29 03:33:49;;;;;;;5.82;2.95;;;;;;;;;;5085254;28;20504;-69
2023/03/29 03:36:15;;;;;;;6.25;2.97;;;;;;;;;;5085081;28;20204;-69
2023/03/29 03:38:42;;;;;;;3.72;3.00;;;;;;;;;;5084948;28;20230;-69
2023/03/29 03:41:09;;;;;;;3.20;2.90;;;;;;;;;;5084792;28;20200;-69
2023/03/29 03:43:35;;;;;;;2.75;2.55;;;;;;;;;;5084560;28;20392;-69
2023/03/29 03:46:03;;;;;;;3.47;2.97;;;;;;;;;;5084897;28;20264;-69
2023/03/29 03:48:30;;;;;;;2.75;2.55;;;;;;;;;;5084315;28;20197;-69
2023/03/29 03:50:57;;;;;;;3.05;2.85;;;;;;;;;;5084877;28;20217;-69
2023/03/29 03:53:25;;;;;;;4.68;2.88;;;;;;;;;;5084692;28;20197;-69
2023/03/29 03:55:52;;;;;;;3.10;2.63;;;;;;;;;;5084548;28;20197;-69
2023/03/29 03:58:18;;;;;;;6.32;2.65;;;;;;;;;;5084481;28;20214;-69
2023/03/29 04:00:47;;;;;;;4.80;2.60;;;;;;;;;;5084733;28;20193;-68
2023/03/29 04:03:15;;;;;;;2.90;2.70;;;;;;;;;;5084430;28;20220;-67
2023/03/29 04:05:43;;;;;;;2.72;2.55;;;;;;;;;;5084234;28;20224;-67
2023/03/29 04:08:09;;;;;;;2.97;2.70;;;;;;;;;;5084246;28;20523;-67
2023/03/29 04:10:36;;;;;;;2.58;2.47;;;;;;;;;;5084734;28;20254;-67
2023/03/29 04:13:03;;;;;;;3.17;2.97;;;;;;;;;;5084053;28;20395;-67
2023/03/29 04:15:30;;;;;;;3.53;3.00;;;;;;;;;;5084185;28;20200;-67
2023/03/29 04:17:56;;;;;;;3.22;3.00;;;;;;;;;;5084136;28;20200;-69
2023/03/29 04:20:24;;;;;;;5.07;3.20;;;;;;;;;;5084362;28;20242;-67
2023/03/29 04:22:51;;;;;;;6.80;3.03;;;;;;;;;;5066854;28;20220;-67
2023/03/29 04:25:17;;;;;;;4.20;2.85;;;;;;;;;;5084021;28;20208;-67
2023/03/29 04:27:44;;;;;;;2.67;2.47;;;;;;;;;;5084057;28;20224;-67
2023/03/29 04:30:12;;;;;;;2.53;2.33;;;;;;;;;;5084289;28;20207;-67
2023/03/29 04:32:38;;;;;;;3.03;2.25;;;;;;;;;;5083719;28;20224;-67
2023/03/29 04:35:05;;;;;;;3.22;2.28;;;;;;;;;;5084225;28;20244;-67
2023/03/29 04:37:32;;;;;;;2.70;2.50;;;;;;;;;;5083736;28;20254;-67
2023/03/29 04:40:00;;;;;;;2.40;2.20;;;;;;;;;;5084004;28;20201;-67
2023/03/29 04:42:26;;;;;;;3.80;3.25;;;;;;;;;;5083527;28;20432;-68
2023/03/29 04:44:53;;;;;;;6.38;3.50;;;;;;;;;;5075845;28;20388;-68
2023/03/29 04:47:20;;;;;;;6.25;3.45;;;;;;;;;;5083687;28;20240;-68
2023/03/29 04:49:46;;;;;;;3.65;3.30;;;;;;;;;;5083437;28;20212;-67
2023/03/29 04:52:12;;;;;;;4.25;3.67;;;;;;;;;;5083391;28;20207;-68
2023/03/29 04:54:40;;;;;;;4.68;3.80;;;;;;;;;;5083609;28;20211;-68
2023/03/29 04:57:07;;;;;;;6.22;3.60;;;;;;;;;;5083762;28;20200;-68
2023/03/29 04:59:33;;;;;;;4.20;3.13;;;;;;;;;;5083073;28;20201;-69
2023/03/29 05:02:01;;;;;;;3.80;3.55;;;;;;;;;;5083007;28;20220;-69
2023/03/29 05:04:28;;;;;;;3.47;3.25;;;;;;;;;;5082908;28;20587;-69
2023/03/29 05:06:54;;;;;;;4.13;3.10;;;;;;;;;;5083613;28;20387;-69
2023/03/29 05:09:21;;;;;;;3.38;3.00;;;;;;;;;;5082795;28;20639;-68
2023/03/29 05:11:48;;;;;;;2.83;2.63;;;;;;;;;;5082889;28;20227;-68
2023/03/29 05:14:15;;;;;;;3.13;2.80;;;;;;;;;;5083359;28;20219;-68
2023/03/29 05:16:42;;;;;;;4.93;3.20;;;;;;;;;;5082504;28;20223;-68
2023/03/29 05:19:10;;;;;;;3.38;3.17;;;;;;;;;;5082723;28;20283;-68
2023/03/29 05:21:36;;;;;;;6.40;3.72;;;;;;;;;;5082847;28;20204;-68
2023/03/29 05:24:03;;;;;;;4.10;3.78;;;;;;;;;;5082736;28;20227;-68
2023/03/29 05:26:29;;;;;;;7.00;3.67;;;;;;;;;;5082611;28;20516;-68
2023/03/29 05:28:57;;;;;;;5.45;3.90;;;;;;;;;;5082811;28;20216;-69
2023/03/29 05:31:23;;;;;;;4.68;4.00;;;;;;;;;;5082570;28;20515;-69
2023/03/29 05:33:50;;;;;;;6.70;3.88;;;;;;;;;;5081693;28;20569;-69
2023/03/29 05:36:17;;;;;;;5.70;3.58;;;;;;;;;;5082933;28;20496;-69
2023/03/29 05:38:45;;;;;;;4.90;3.85;;;;;;;;;;5082668;28;20268;-69
2023/03/29 05:41:11;;;;;;;4.35;3.70;;;;;;;;;;5082605;28;20200;-69
2023/03/29 05:43:38;;;;;;;5.57;3.40;;;;;;;;;;5082317;28;20224;-69
2023/03/29 05:46:06;;;;;;;4.07;3.45;;;;;;;;;;5080616;28;20208;-60
2023/03/29 05:48:32;;;;;;;3.80;3.20;;;;;;;;;;5074799;28;20583;-60
2023/03/29 05:50:58;;;;;;;3.50;3.10;;;;;;;;;;5073677;28;20224;-59
2023/03/29 05:53:25;;;;;;;3.35;3.15;;;;;;;;;;5076530;28;20562;-59
2023/03/29 05:55:52;;;;;;;3.88;3.10;;;;;;;;;;5074206;28;20729;-60
2023/03/29 05:58:19;;;;;;;5.30;3.88;;;;;;;;;;5074923;28;20496;-60
2023/03/29 06:00:48;;;;;;;4.72;3.30;;;;;;;;;;5072210;28;20208;-60
2023/03/29 06:03:17;;;;;;;3.72;3.35;;;;;;;;;;5068413;28;20208;-59
2023/03/29 06:05:44;;;;;;;5.78;4.03;;;;;;;;;;5072997;28;20390;-59
2023/03/29 06:08:10;;;;;;;5.53;3.35;;;;;;;;;;5073609;28;20218;-59
2023/03/29 06:10:37;;;;;;;5.78;3.00;;;;;;;;;;5073633;28;20208;-59
2023/03/29 06:13:05;;;;;;;5.40;3.15;;;;;;;;;;5073496;28;20231;-59
2023/03/29 06:15:31;;;;;;;4.25;3.17;;;;;;;;;;5071571;28;20389;-59
2023/03/29 06:17:58;;;;;;;6.63;3.30;;;;;;;;;;5071906;28;20227;-59
2023/03/29 06:20:25;;;;;;;5.13;3.72;;;;;;;;;;5075516;28;20219;-59
2023/03/29 06:22:52;;;;;;;5.50;3.78;;;;;;;;;;5075131;28;22535;-59
2023/03/29 06:25:18;;;;;;;16.75;7.20;;;;;;;;;;5075155;28;20228;-58
2023/03/29 06:27:46;;;;;;;16.75;7.97;;;;;;;;;;5075082;28;20739;-59
2023/03/29 06:30:14;;;;;;;25.15;10.13;;;;;;;;;;5073059;28;20208;-60
2023/03/29 06:32:40;;;;;;;19.67;8.68;;;;;;;;;;5068475;28;20212;-59
2023/03/29 06:35:07;;;;;;;15.52;7.07;;;;;;;;;;5071105;28;20246;-59
2023/03/29 06:37:35;;;;;;;10.68;5.78;;;;;;;;;;5071953;28;20554;-59
2023/03/29 06:40:06;;;;;;;10.70;5.35;;;;;;;;;;5074476;28;20216;-58
2023/03/29 06:42:32;;;;;;;16.88;5.63;;;;;;;;;;5073845;28;20212;-59
2023/03/29 06:44:59;;;;;;;21.48;4.95;;;;;;;;;;5077466;28;20243;-58
2023/03/29 06:47:29;;;;;;;11.10;6.55;;;;;;;;;;5081127;28;20489;-59
2023/03/29 06:49:55;;;;;;;19.90;7.95;;;;;;;;;;5075380;28;20257;-58
2023/03/29 06:52:22;;;;;;;10.27;5.82;;;;;;;;;;5079032;28;20212;-61
2023/03/29 06:54:50;;;;;;;13.48;6.28;;;;;;;;;;5078000;28;20208;-61
2023/03/29 06:57:16;;;;;;;11.27;4.57;;;;;;;;;;5079510;28;20542;-61
2023/03/29 06:59:42;;;;;;;5.47;3.78;;;;;;;;;;5078278;28;20208;-61
2023/03/29 07:02:11;;;;;;;8.07;3.40;;;;;;;;;;5079091;28;20213;-61
2023/03/29 07:04:37;;;;;;;7.50;3.92;;;;;;;;;;5079095;28;20247;-61
2023/03/29 07:07:06;;;;;;;7.15;3.35;;;;;;;;;;5079033;28;20235;-61
2023/03/29 07:09:34;;;;;;;4.05;3.53;;;;;;;;;;5078177;28;20543;-61
2023/03/29 07:12:02;;;;;;;4.53;2.85;;;;;;;;;;5078170;28;20284;-61
2023/03/29 07:14:29;;;;;;;2.97;2.70;;;;;;;;;;5079125;28;20558;-61
2023/03/29 07:16:57;;;;;;;4.32;2.70;;;;;;;;;;5078619;28;20262;-61
2023/03/29 07:19:26;;;;;;;3.15;2.78;;;;;;;;;;5078326;28;20254;-61
2023/03/29 07:21:53;;;;;;;4.13;2.63;;;;;;;;;;5077838;28;20212;-61
2023/03/29 07:24:19;;;;;;;3.33;2.22;;;;;;;;;;5078865;28;20223;-61
2023/03/29 07:26:47;;;;;;;6.07;2.85;;;;;;;;;;5079638;28;20624;-61
2023/03/29 07:29:15;;;;;;;3.67;2.08;;;;;;;;;;5079623;28;20232;-61
2023/03/29 07:31:41;;;;;;;2.22;2.03;;;;;;;;;;5077834;28;20504;-61
2023/03/29 07:34:09;;;;;;;3.85;2.10;;;;;;;;;;5078936;28;20204;-61
2023/03/29 07:36:37;;;;;;;5.00;2.22;;;;;;;;;;5078453;28;20547;-61
2023/03/29 07:39:03;;;;;;;2.22;2.13;;;;;;;;;;5070717;28;20204;-61
2023/03/29 07:41:30;;;;;;;3.10;2.08;;;;;;;;;;5078674;28;20216;-61
2023/03/29 07:43:56;;;;;;;2.03;1.85;;;;;;;;;;5078596;28;20228;-61
2023/03/29 07:46:24;;;;;;;5.78;1.98;;;;;;;;;;5078654;28;20208;-61
2023/03/29 07:48:51;;;;;;;2.10;2.00;;;;;;;;;;5077996;28;20461;-62
2023/03/29 07:51:17;;;;;;;4.28;1.98;;;;;;;;;;5076936;28;20551;-61
2023/03/29 07:53:43;;;;;;;4.95;2.60;;;;;;;;;;5078179;28;20208;-61
2023/03/29 07:56:09;;;;;;;3.55;2.88;;;;;;;;;;5078294;28;20216;-61
2023/03/29 07:58:36;;;;;;;4.75;2.63;;;;;;;;;;5077874;28;20250;-61
2023/03/29 08:01:02;;;;;;;4.22;2.47;;;;;;;;;;5077461;28;20275;-61
2023/03/29 08:03:30;;;;;;;4.68;2.25;;;;;;;;;;5077849;28;20220;-61
2023/03/29 08:05:56;;;;;;;2.60;2.40;;;;;;;;;;5077750;28;20235;-61
2023/03/29 08:08:22;;;;;;;3.80;2.28;;;;;;;;;;5078139;28;20232;-61
2023/03/29 08:10:49;;;;;;;2.42;2.20;;;;;;;;;;5077630;28;20236;-61
2023/03/29 08:13:15;;;;;;;2.10;2.00;;;;;;;;;;5077968;28;20228;-61
2023/03/29 08:15:45;;;;;;;2.33;1.77;;;;;;;;;;5077776;28;20224;-61
2023/03/29 08:18:11;;;;;;;2.72;1.95;;;;;;;;;;5077452;28;20219;-61
2023/03/29 08:20:38;;;;;;;5.93;2.08;;;;;;;;;;5077302;28;20208;-61
2023/03/29 08:23:05;;;;;;;3.22;1.90;;;;;;;;;;5077451;28;20208;-61
2023/03/29 08:25:31;;;;;;;3.33;1.92;;;;;;;;;;5077813;28;20223;-62
2023/03/29 08:27:57;;;;;;;1.83;1.58;;;;;;;;;;5077593;28;20224;-61
2023/03/29 08:30:24;;;;;;;1.92;1.42;;;;;;;;;;5077533;28;20242;-61
2023/03/29 08:32:52;;;;;;;1.50;1.40;;;;;;;;;;5077614;28;20204;-61
2023/03/29 08:35:18;;;;;;;1.60;1.50;;;;;;;;;;5077684;28;20211;-61
2023/03/29 08:37:46;;;;;;;1.67;1.63;;;;;;;;;;5077337;28;20215;-61
2023/03/29 08:40:16;;;;;;;2.30;1.40;;;;;;;;;;5077882;28;20209;-61
2023/03/29 08:42:55;;;;;;;4.97;1.63;;;;;;;;;;5077464;28;20208;-62
2023/03/29 08:45:26;;;;;;;1.77;1.63;;;;;;;;;;5077034;28;20283;-61
2023/03/29 08:47:57;;;;;;;4.18;1.70;;;;;;;;;;5077262;28;20249;-61
2023/03/29 08:50:27;;;;;;;2.58;1.50;;;;;;;;;;5077334;28;20215;-61
2023/03/29 08:52:56;;;;;;;2.08;1.63;;;;;;;;;;5077086;28;20213;-62
2023/03/29 08:55:24;;;;;;;1.85;1.67;;;;;;;;;;5077464;28;20204;-61
2023/03/29 08:57:51;;;;;;;2.78;2.10;;;;;;;;;;5076955;28;20208;-59
2023/03/29 09:00:20;;;;;;;3.55;1.73;;;;;;;;;;5076925;28;20205;-59
2023/03/29 09:02:47;;;;;;;1.77;1.67;;;;;;;;;;5075712;28;20216;-59
2023/03/29 09:05:19;;;;;;;6.22;1.95;;;;;;;;;;5076108;28;20224;-59
2023/03/29 09:07:45;;;;;;;2.53;1.73;;;;;;;;;;5078188;28;20219;-59
2023/03/29 09:10:14;;;;;;;2.53;1.83;;;;;;;;;;5078608;28;20279;-59
2023/03/29 09:12:47;;;;;;;3.05;1.80;;;;;;;;;;5078816;28;20213;-59
2023/03/29 09:15:14;;;;;;;1.58;1.50;;;;;;;;;;5071806;28;20212;-60
2023/03/29 09:17:50;;;;;;;1.52;1.30;;;;;;;;;;5079306;28;20368;-59
2023/03/29 09:20:22;;;;;;;2.92;1.50;;;;;;;;;;5072311;28;20204;-59
2023/03/29 09:22:54;;;;;;;1.35;1.30;;;;;;;;;;5078882;28;20212;-59
2023/03/29 09:25:24;;;;;;;1.90;1.42;;;;;;;;;;5079376;28;20216;-59
2023/03/29 09:27:57;;;;;;;2.10;1.60;;;;;;;;;;5078948;28;20542;-59
2023/03/29 09:30:26;;;;;;;2.72;1.75;;;;;;;;;;5078542;28;20208;-59
2023/03/29 09:32:53;;;;;;;4.60;1.77;;;;;;;;;;5078294;28;20383;-59
2023/03/29 09:35:21;;;;;;;1.40;1.30;;;;;;;;;;5078993;28;20441;-59
2023/03/29 09:37:50;;;;;;;1.63;1.50;;;;;;;;;;5081078;28;20212;-59
2023/03/29 09:40:18;;;;;;;2.25;1.38;;;;;;;;;;5078871;28;20253;-59
2023/03/29 09:42:47;;;;;;;4.60;1.70;;;;;;;;;;5078639;28;20231;-60
2023/03/29 09:45:13;;;;;;;3.83;1.40;;;;;;;;;;5074901;28;20224;-59
2023/03/29 09:47:42;;;;;;;4.40;1.75;;;;;;;;;;5077646;28;20467;-59
2023/03/29 09:50:11;;;;;;;2.00;1.35;;;;;;;;;;5077551;28;20215;-59
2023/03/29 09:52:37;;;;;;;4.50;1.60;;;;;;;;;;5077832;28;20544;-59
2023/03/29 09:55:04;;;;;;;3.13;1.40;;;;;;;;;;5077795;28;20230;-60
2023/03/29 09:57:31;;;;;;;1.60;1.50;;;;;;;;;;5076599;28;20208;-59
2023/03/29 10:00:00;;;;;;;3.10;1.30;;;;;;;;;;5076850;28;20212;-59
2023/03/29 10:02:29;;;;;;;1.90;1.35;;;;;;;;;;5076598;28;20208;-60
2023/03/29 10:04:57;;;;;;;1.33;1.23;;;;;;;;;;5074978;28;20216;-59
2023/03/29 10:07:24;;;;;;;2.15;1.38;;;;;;;;;;5076677;28;20299;-59
2023/03/29 10:09:52;;;;;;;2.10;1.30;;;;;;;;;;5076414;28;20512;-60
2023/03/29 10:12:19;;;;;;;1.95;1.10;;;;;;;;;;5076366;28;20262;-59
2023/03/29 10:14:47;;;;;;;2.78;1.52;;;;;;;;;;5076466;28;20204;-60
2023/03/29 10:17:16;;;;;;;1.90;1.17;;;;;;;;;;5073919;28;20219;-60
2023/03/29 10:19:48;;;;;;;3.67;1.63;;;;;;;;;;5076192;28;20208;-60
2023/03/29 10:22:17;;;;;;;4.07;1.35;;;;;;;;;;5076349;28;20208;-59
2023/03/29 10:24:47;;;;;;;2.42;1.60;;;;;;;;;;5076270;28;20572;-59
2023/03/29 10:27:13;;;;;;;2.17;1.70;;;;;;;;;;5076377;28;20224;-59
2023/03/29 10:29:41;;;;;;;2.17;1.73;;;;;;;;;;5076877;28;20440;-59
2023/03/29 10:32:16;;;;;;;2.90;1.50;;;;;;;;;;5077019;28;20399;-60
2023/03/29 10:34:43;;;;;;;1.30;1.30;;;;;;;;;;5076669;28;20414;-59
2023/03/29 10:37:11;;;;;;;1.40;1.30;;;;;;;;;;5076510;28;20208;-59
2023/03/29 10:39:39;;;;;;;2.00;1.20;;;;;;;;;;5076073;28;20212;-60
2023/03/29 10:42:07;;;;;;;1.52;1.42;;;;;;;;;;5076219;28;20211;-59
2023/03/29 10:44:34;;;;;;;3.17;1.45;;;;;;;;;;5076814;28;20466;-60
2023/03/29 10:47:08;;;;;;;1.23;1.10;;;;;;;;;;5074714;28;20279;-60
2023/03/29 10:49:41;;;;;;;2.47;1.15;;;;;;;;;;5076709;28;20215;-60
2023/03/29 10:52:08;;;;;;;1.40;1.30;;;;;;;;;;5075424;28;20527;-59
2023/03/29 10:54:34;;;;;;;1.83;1.52;;;;;;;;;;5076772;28;20208;-59
2023/03/29 10:57:03;;;;;;;1.10;1.10;;;;;;;;;;5075044;28;20212;-59
2023/03/29 10:59:30;;;;;;;1.65;1.20;;;;;;;;;;5076568;28;20215;-60
2023/03/29 11:02:03;;;;;;;2.72;1.00;;;;;;;;;;5075846;28;20216;-60
2023/03/29 11:04:36;;;;;;;1.60;1.60;;;;;;;;;;5076338;28;20427;-59
2023/03/29 11:07:18;;;;;;;2.25;2.15;;;;;;;;;;5074343;28;20501;-59
2023/03/29 11:09:50;;;;;;;2.95;1.20;;;;;;;;;;5072674;28;20215;-60
2023/03/29 11:12:18;;;;;;;1.92;1.30;;;;;;;;;;5074819;28;20213;-60
2023/03/29 11:14:51;;;;;;;2.08;1.20;;;;;;;;;;5075808;28;20215;-60
2023/03/29 11:17:23;;;;;;;4.28;1.30;;;;;;;;;;5075212;28;20209;-60
2023/03/29 11:20:04;;;;;;;1.75;1.30;;;;;;;;;;5076061;28;20651;-60
2023/03/29 11:22:35;;;;;;;1.50;1.40;;;;;;;;;;5074063;28;20217;-60
2023/03/29 11:25:12;;;;;;;2.10;1.17;;;;;;;;;;5075878;28;20224;-60
2023/03/29 11:27:41;;;;;;;1.95;1.75;;;;;;;;;;5075844;28;20224;-59
2023/03/29 11:30:10;;;;;;;2.42;1.30;;;;;;;;;;5076030;28;20236;-59
2023/03/29 11:32:42;;;;;;;1.25;1.10;;;;;;;;;;5077438;28;20236;-59
2023/03/29 11:35:18;;;;;;;1.65;1.30;;;;;;;;;;5079341;28;20212;-59
2023/03/29 11:37:47;;;;;;;1.55;1.13;;;;;;;;;;5079640;28;20208;-59
2023/03/29 11:40:31;;;;;;;3.90;1.40;;;;;;;;;;5079013;28;20228;-59
2023/03/29 11:42:59;;;;;;;2.05;1.10;;;;;;;;;;5078785;28;20212;-59
2023/03/29 11:45:28;;;;;;;1.40;1.33;;;;;;;;;;5079363;28;20224;-59
2023/03/29 11:47:55;;;;;;;4.38;1.58;;;;;;;;;;5079479;28;20532;-59
2023/03/29 11:50:23;;;;;;;4.10;1.98;;;;;;;;;;5079653;28;20244;-59
2023/03/29 11:52:52;;;;;;;4.25;2.28;;;;;;;;;;5079313;28;20209;-59
2023/03/29 11:55:22;;;;;;;2.92;1.40;;;;;;;;;;5071831;28;20226;-59
2023/03/29 11:57:51;;;;;;;2.00;1.20;;;;;;;;;;5079511;28;20207;-59
2023/03/29 12:00:20;;;;;;;1.40;1.30;;;;;;;;;;5071334;28;20212;-59
2023/03/29 12:02:49;;;;;;;1.45;1.20;;;;;;;;;;5079319;28;20520;-59
2023/03/29 12:05:18;;;;;;;1.05;1.05;;;;;;;;;;5079265;28;20219;-59
2023/03/29 12:07:47;;;;;;;2.53;0.98;;;;;;;;;;5079265;28;20216;-60
2023/03/29 12:10:16;;;;;;;0.90;0.90;;;;;;;;;;5078951;28;20224;-60
2023/03/29 12:12:46;;;;;;;1.98;1.02;;;;;;;;;;5078851;28;20216;-60
2023/03/29 12:15:16;;;;;;;2.13;1.30;;;;;;;;;;5078448;28;20204;-60
2023/03/29 12:17:44;;;;;;;2.47;1.00;;;;;;;;;;5078685;28;20425;-60
2023/03/29 12:20:15;;;;;;;2.25;1.00;;;;;;;;;;5078647;28;20200;-59
2023/03/29 12:22:41;;;;;;;0.88;0.82;;;;;;;;;;5078446;28;20212;-60
2023/03/29 12:25:11;;;;;;;1.15;1.05;;;;;;;;;;5078286;28;20219;-60
2023/03/29 12:27:42;;;;;;;0.77;0.77;;;;;;;;;;5075597;28;20224;-59
2023/03/29 12:30:20;;;;;;;1.35;0.90;;;;;;;;;;5078193;28;20217;-59
2023/03/29 12:32:52;;;;;;;1.05;0.80;;;;;;;;;;5076758;28;20446;-58
2023/03/29 12:35:22;;;;;;;1.27;0.85;;;;;;;;;;5076194;28;20238;-60
2023/03/29 12:37:55;;;;;;;2.70;0.77;;;;;;;;;;5078422;28;20204;-59
2023/03/29 12:40:25;;;;;;;0.50;0.50;;;;;;;;;;5070886;28;20314;-60
2023/03/29 12:42:52;;;;;;;0.73;0.73;;;;;;;;;;5077939;28;20528;-60
2023/03/29 12:45:21;;;;;;;1.40;1.00;;;;;;;;;;5078186;28;20209;-59
2023/03/29 12:47:50;;;;;;;0.90;0.80;;;;;;;;;;5078203;28;20212;-59
2023/03/29 12:50:27;;;;;;;0.70;0.70;;;;;;;;;;5078172;28;20208;-59
2023/03/29 12:53:01;;;;;;;2.20;0.82;;;;;;;;;;5078092;28;20209;-59
2023/03/29 12:55:31;;;;;;;0.80;0.80;;;;;;;;;;5070499;28;20204;-59
2023/03/29 12:58:00;;;;;;;1.38;1.05;;;;;;;;;;5076265;28;20220;-59
2023/03/29 13:00:32;;;;;;;2.88;1.00;;;;;;;;;;5077669;28;20474;-59
2023/03/29 13:03:00;;;;;;;1.38;0.73;;;;;;;;;;5077516;28;20424;-59
2023/03/29 13:05:28;;;;;;;2.83;1.15;;;;;;;;;;5078212;28;20246;-59
2023/03/29 13:07:54;;;;;;;5.22;0.90;;;;;;;;;;5077210;28;20217;-58
2023/03/29 13:10:39;;;;;;;1.40;0.80;;;;;;;;;;5078566;28;20366;-61
2023/03/29 13:13:11;;;;;;;1.17;0.93;;;;;;;;;;5079763;28;20212;-59
2023/03/29 13:15:39;;;;;;;2.33;1.20;;;;;;;;;;5079783;28;20205;-59
2023/03/29 13:18:10;;;;;;;1.05;0.93;;;;;;;;;;5079920;28;20216;-60
2023/03/29 13:20:43;;;;;;;1.02;0.80;;;;;;;;;;5074621;28;20232;-59
2023/03/29 13:23:21;;;;;;;2.60;1.10;;;;;;;;;;5078170;28;20212;-59
2023/03/29 13:25:55;;;;;;;1.40;0.80;;;;;;;;;;5078267;28;20450;-59
2023/03/29 13:28:27;;;;;;;1.45;0.80;;;;;;;;;;5076951;28;20224;-60
2023/03/29 13:30:58;;;;;;;4.28;0.90;;;;;;;;;;5076998;28;20230;-60
2023/03/29 13:33:36;;;;;;;1.42;1.42;;;;;;;;;;5068802;28;20208;-60
2023/03/29 13:36:05;;;;;;;1.13;1.10;;;;;;;;;;5076702;28;20579;-60
2023/03/29 13:38:32;;;;;;;3.40;1.10;;;;;;;;;;5076382;28;20519;-60
2023/03/29 13:41:00;;;;;;;0.93;0.93;;;;;;;;;;5076481;28;20216;-59
2023/03/29 13:43:30;;;;;;;1.33;1.00;;;;;;;;;;5076062;28;20209;-60
2023/03/29 13:46:05;;;;;;;2.05;1.00;;;;;;;;;;5073856;28;20238;-60
2023/03/29 13:48:33;;;;;;;1.25;0.98;;;;;;;;;;5069773;28;20555;-60
2023/03/29 13:51:00;;;;;;;6.47;1.20;;;;;;;;;;5076624;28;20225;-60
2023/03/29 13:53:29;;;;;;;3.20;0.90;;;;;;;;;;5076661;28;20231;-59
2023/03/29 13:55:57;;;;;;;3.60;0.80;;;;;;;;;;5075773;28;20573;-59
2023/03/29 13:58:28;;;;;;;1.40;1.05;;;;;;;;;;5076378;28;20227;-62
2023/03/29 14:00:58;;;;;;;2.25;0.88;;;;;;;;;;5076611;28;20212;-59
2023/03/29 14:03:28;;;;;;;0.77;0.75;;;;;;;;;;5068030;28;20250;-60
2023/03/29 14:05:57;;;;;;;2.72;1.02;;;;;;;;;;5077616;28;20257;-60
2023/03/29 14:08:25;;;;;;;4.40;0.93;;;;;;;;;;5081469;28;20202;-60
2023/03/29 14:10:52;;;;;;;1.98;0.95;;;;;;;;;;5081738;28;20242;-60
2023/03/29 14:13:21;;;;;;;0.90;0.90;;;;;;;;;;5081590;28;20200;-60
2023/03/29 14:15:50;;;;;;;2.90;1.00;;;;;;;;;;5081711;28;20219;-60
2023/03/29 14:18:18;;;;;;;3.83;0.95;;;;;;;;;;5081486;28;20200;-60
2023/03/29 14:20:47;;;;;;;3.55;1.00;;;;;;;;;;5081530;28;20407;-60
2023/03/29 14:23:16;;;;;;;1.58;0.85;;;;;;;;;;5081259;28;20200;-60
2023/03/29 14:25:43;;;;;;;3.88;1.10;;;;;;;;;;5081693;28;20196;-59
2023/03/29 14:28:18;;;;;;;0.98;0.98;;;;;;;;;;5081386;28;20224;-60
2023/03/29 14:30:45;;;;;;;1.27;0.93;;;;;;;;;;5081764;28;20431;-60
2023/03/29 14:33:12;;;;;;;4.20;1.08;;;;;;;;;;5081041;28;20200;-60
2023/03/29 14:35:39;;;;;;;0.90;0.85;;;;;;;;;;5081360;28;20200;-59
2023/03/29 14:38:06;;;;;;;2.67;1.00;;;;;;;;;;5074822;28;20216;-60
2023/03/29 14:40:33;;;;;;;1.05;1.00;;;;;;;;;;5076893;28;20468;-58
2023/03/29 14:43:04;;;;;;;3.80;1.30;;;;;;;;;;5076718;28;20403;-59
2023/03/29 14:45:31;;;;;;;1.00;1.00;;;;;;;;;;5067362;28;20218;-59
2023/03/29 14:47:57;;;;;;;1.95;1.20;;;;;;;;;;5074627;28;20232;-60
2023/03/29 14:50:25;;;;;;;2.17;1.23;;;;;;;;;;5078808;28;20209;-60